sensor_id;sensor_type;location;lat;lon;timestamp;pressure;altitude;pressure_sealevel;temperature;humidity
79250;BME280;68679;51.030;7.584;2023-04-24T00:01:15;97614.16;;;10.21;68.35
79250;BME280;68679;51.030;7.584;2023-04-24T00:03:42;97609.22;;;10.19;68.94
79250;BME280;68679;51.030;7.584;2023-04-24T00:06:07;97605.53;;;10.20;68.58
79250;BME280;68679;51.030;7.584;2023-04-24T00:08:33;97598.75;;;10.19;68.86
79250;BME280;68679;51.030;7.584;2023-04-24T00:10:59;97603.50;;;10.17;68.82
79250;BME280;68679;51.030;7.584;2023-04-24T00:13:25;97600.75;;;10.23;68.43
79250;BME280;68679;51.030;7.584;2023-04-24T00:15:50;97593.19;;;10.21;68.36
79250;BME280;68679;51.030;7.584;2023-04-24T00:18:16;97598.44;;;10.21;69.01
79250;BME280;68679;51.030;7.584;2023-04-24T00:20:41;97602.13;;;10.20;69.00
79250;BME280;68679;51.030;7.584;2023-04-24T00:23:08;97593.19;;;10.21;69.00
79250;BME280;68679;51.030;7.584;2023-04-24T00:25:34;97582.13;;;10.24;68.02
79250;BME280;68679;51.030;7.584;2023-04-24T00:27:59;97591.94;;;10.18;68.08
79250;BME280;68679;51.030;7.584;2023-04-24T00:30:24;97583.63;;;10.16;68.77
79250;BME280;68679;51.030;7.584;2023-04-24T00:32:50;97585.16;;;10.17;68.80
79250;BME280;68679;51.030;7.584;2023-04-24T00:35:15;97589.31;;;10.18;69.05
79250;BME280;68679;51.030;7.584;2023-04-24T00:37:41;97588.56;;;10.18;69.78
79250;BME280;68679;51.030;7.584;2023-04-24T00:40:07;97589.31;;;10.18;68.49
79250;BME280;68679;51.030;7.584;2023-04-24T00:42:32;97583.16;;;10.14;69.05
79250;BME280;68679;51.030;7.584;2023-04-24T00:44:58;97585.28;;;10.12;70.11
79250;BME280;68679;51.030;7.584;2023-04-24T00:47:25;97575.91;;;10.11;69.90
79250;BME280;68679;51.030;7.584;2023-04-24T00:49:50;97575.44;;;10.09;69.52
79250;BME280;68679;51.030;7.584;2023-04-24T00:52:15;97572.06;;;10.09;70.02
79250;BME280;68679;51.030;7.584;2023-04-24T00:54:43;97574.38;;;10.10;69.69
79250;BME280;68679;51.030;7.584;2023-04-24T00:57:09;97566.31;;;10.07;69.66
79250;BME280;68679;51.030;7.584;2023-04-24T00:59:34;97569.91;;;10.11;69.93
79250;BME280;68679;51.030;7.584;2023-04-24T01:02:01;97568.19;;;10.06;69.98
79250;BME280;68679;51.030;7.584;2023-04-24T01:04:27;97565.75;;;10.10;69.61
79250;BME280;68679;51.030;7.584;2023-04-24T01:06:52;97558.97;;;10.09;70.05
79250;BME280;68679;51.030;7.584;2023-04-24T01:09:18;97561.56;;;10.09;70.45
79250;BME280;68679;51.030;7.584;2023-04-24T01:11:44;97563.88;;;10.10;70.36
79250;BME280;68679;51.030;7.584;2023-04-24T01:14:09;97551.88;;;10.09;70.05
79250;BME280;68679;51.030;7.584;2023-04-24T01:16:35;97562.03;;;10.11;70.09
79250;BME280;68679;51.030;7.584;2023-04-24T01:19:01;97564.19;;;10.09;69.47
79250;BME280;68679;51.030;7.584;2023-04-24T01:21:29;97558.66;;;10.10;69.80
79250;BME280;68679;51.030;7.584;2023-04-24T01:23:55;97557.25;;;10.13;70.08
79250;BME280;68679;51.030;7.584;2023-04-24T01:26:22;97553.09;;;10.12;70.12
79250;BME280;68679;51.030;7.584;2023-04-24T01:28:48;97565.13;;;10.13;69.92
79250;BME280;68679;51.030;7.584;2023-04-24T01:31:14;97562.97;;;10.15;70.44
79250;BME280;68679;51.030;7.584;2023-04-24T01:33:41;97571.16;;;10.13;70.98
79250;BME280;68679;51.030;7.584;2023-04-24T01:36:07;97549.41;;;10.13;71.09
79250;BME280;68679;51.030;7.584;2023-04-24T01:38:33;97556.03;;;10.10;71.66
79250;BME280;68679;51.030;7.584;2023-04-24T01:40:59;97555.25;;;10.10;71.92
79250;BME280;68679;51.030;7.584;2023-04-24T01:43:24;97560.50;;;10.10;72.54
79250;BME280;68679;51.030;7.584;2023-04-24T01:45:50;97560.03;;;10.08;72.67
79250;BME280;68679;51.030;7.584;2023-04-24T01:48:15;97560.31;;;10.06;73.38
79250;BME280;68679;51.030;7.584;2023-04-24T01:50:40;97556.66;;;10.07;72.85
79250;BME280;68679;51.030;7.584;2023-04-24T01:53:06;97553.53;;;10.05;72.71
79250;BME280;68679;51.030;7.584;2023-04-24T01:55:31;97552.78;;;10.05;72.35
79250;BME280;68679;51.030;7.584;2023-04-24T01:57:57;97551.25;;;10.04;72.58
79250;BME280;68679;51.030;7.584;2023-04-24T02:00:24;97551.25;;;10.04;72.48
79250;BME280;68679;51.030;7.584;2023-04-24T02:02:50;97549.38;;;10.04;72.38
79250;BME280;68679;51.030;7.584;2023-04-24T02:05:15;97554.31;;;10.06;73.24
79250;BME280;68679;51.030;7.584;2023-04-24T02:07:40;97556.94;;;10.06;73.60
79250;BME280;68679;51.030;7.584;2023-04-24T02:10:06;97559.56;;;10.06;73.81
79250;BME280;68679;51.030;7.584;2023-04-24T02:12:31;97582.78;;;9.99;74.00
79250;BME280;68679;51.030;7.584;2023-04-24T02:14:57;97601.78;;;9.73;75.90
79250;BME280;68679;51.030;7.584;2023-04-24T02:17:22;97596.00;;;9.62;73.51
79250;BME280;68679;51.030;7.584;2023-04-24T02:19:47;97595.03;;;9.50;74.83
79250;BME280;68679;51.030;7.584;2023-04-24T02:22:13;97599.25;;;9.37;75.14
79250;BME280;68679;51.030;7.584;2023-04-24T02:24:38;97596.44;;;9.33;75.82
79250;BME280;68679;51.030;7.584;2023-04-24T02:27:04;97592.78;;;9.34;75.62
79250;BME280;68679;51.030;7.584;2023-04-24T02:29:30;97593.47;;;9.26;74.69
79250;BME280;68679;51.030;7.584;2023-04-24T02:31:55;97593.56;;;9.35;74.84
79250;BME280;68679;51.030;7.584;2023-04-24T02:34:20;97584.75;;;9.31;74.90
79250;BME280;68679;51.030;7.584;2023-04-24T02:36:46;97583.31;;;9.25;74.48
79250;BME280;68679;51.030;7.584;2023-04-24T02:39:11;97585.22;;;9.33;73.94
79250;BME280;68679;51.030;7.584;2023-04-24T02:41:36;97587.81;;;9.33;74.01
79250;BME280;68679;51.030;7.584;2023-04-24T02:44:02;97592.59;;;9.31;74.38
79250;BME280;68679;51.030;7.584;2023-04-24T02:46:27;97590.94;;;9.35;74.30
79250;BME280;68679;51.030;7.584;2023-04-24T02:48:52;97591.72;;;9.35;74.56
79250;BME280;68679;51.030;7.584;2023-04-24T02:51:18;97595.69;;;9.33;74.32
79250;BME280;68679;51.030;7.584;2023-04-24T02:53:43;97602.63;;;9.37;74.23
79250;BME280;68679;51.030;7.584;2023-04-24T02:56:08;97609.53;;;9.33;73.87
79250;BME280;68679;51.030;7.584;2023-04-24T02:58:33;97612.91;;;9.34;74.00
79250;BME280;68679;51.030;7.584;2023-04-24T03:00:59;97607.69;;;9.34;74.20
79250;BME280;68679;51.030;7.584;2023-04-24T03:03:25;97612.91;;;9.34;74.11
79250;BME280;68679;51.030;7.584;2023-04-24T03:05:50;97619.06;;;9.29;74.13
79250;BME280;68679;51.030;7.584;2023-04-24T03:08:16;97624.09;;;9.26;73.92
79250;BME280;68679;51.030;7.584;2023-04-24T03:10:41;97622.34;;;9.21;74.19
79250;BME280;68679;51.030;7.584;2023-04-24T03:13:07;97633.13;;;9.20;73.83
79250;BME280;68679;51.030;7.584;2023-04-24T03:15:32;97624.72;;;9.09;73.71
79250;BME280;68679;51.030;7.584;2023-04-24T03:17:57;97639.84;;;9.12;73.72
79250;BME280;68679;51.030;7.584;2023-04-24T03:20:23;97638.28;;;9.11;73.98
79250;BME280;68679;51.030;7.584;2023-04-24T03:22:48;97643.22;;;9.12;74.22
79250;BME280;68679;51.030;7.584;2023-04-24T03:25:13;97648.84;;;9.06;73.92
79250;BME280;68679;51.030;7.584;2023-04-24T03:27:39;97653.97;;;9.11;74.49
79250;BME280;68679;51.030;7.584;2023-04-24T03:30:08;97655.63;;;9.07;74.46
79250;BME280;68679;51.030;7.584;2023-04-24T03:32:34;97646.91;;;9.11;74.59
79250;BME280;68679;51.030;7.584;2023-04-24T03:34:59;97656.88;;;9.09;74.09
79250;BME280;68679;51.030;7.584;2023-04-24T03:37:25;97652.25;;;9.06;73.31
79250;BME280;68679;51.030;7.584;2023-04-24T03:39:51;97657.56;;;9.01;72.95
79250;BME280;68679;51.030;7.584;2023-04-24T03:42:16;97654.97;;;9.01;73.55
79250;BME280;68679;51.030;7.584;2023-04-24T03:44:42;97658.84;;;8.90;74.04
79250;BME280;68679;51.030;7.584;2023-04-24T03:47:07;97659.16;;;8.89;72.29
79250;BME280;68679;51.030;7.584;2023-04-24T03:49:32;97670.00;;;8.82;73.31
79250;BME280;68679;51.030;7.584;2023-04-24T03:51:58;97670.56;;;8.79;72.54
79250;BME280;68679;51.030;7.584;2023-04-24T03:54:23;97672.94;;;8.80;72.15
79250;BME280;68679;51.030;7.584;2023-04-24T03:56:48;97681.34;;;8.77;72.93
79250;BME280;68679;51.030;7.584;2023-04-24T03:59:13;97679.59;;;8.59;71.32
79250;BME280;68679;51.030;7.584;2023-04-24T04:01:39;97668.78;;;8.52;71.96
79250;BME280;68679;51.030;7.584;2023-04-24T04:04:05;97678.72;;;8.64;72.49
79250;BME280;68679;51.030;7.584;2023-04-24T04:06:30;97677.38;;;8.52;70.66
79250;BME280;68679;51.030;7.584;2023-04-24T04:08:56;97680.19;;;8.56;71.68
79250;BME280;68679;51.030;7.584;2023-04-24T04:11:22;97684.53;;;8.60;71.84
79250;BME280;68679;51.030;7.584;2023-04-24T04:13:47;97685.91;;;8.58;71.89
79250;BME280;68679;51.030;7.584;2023-04-24T04:16:13;97681.44;;;8.58;71.45
79250;BME280;68679;51.030;7.584;2023-04-24T04:18:38;97687.25;;;8.55;72.34
79250;BME280;68679;51.030;7.584;2023-04-24T04:21:03;97690.34;;;8.57;72.18
79250;BME280;68679;51.030;7.584;2023-04-24T04:23:29;97688.03;;;8.56;71.24
79250;BME280;68679;51.030;7.584;2023-04-24T04:25:54;97696.25;;;8.49;71.44
79250;BME280;68679;51.030;7.584;2023-04-24T04:28:20;97695.47;;;8.49;68.78
79250;BME280;68679;51.030;7.584;2023-04-24T04:30:45;97687.63;;;8.49;71.28
79250;BME280;68679;51.030;7.584;2023-04-24T04:33:12;97690.81;;;8.46;70.15
79250;BME280;68679;51.030;7.584;2023-04-24T04:35:37;97686.66;;;8.45;70.07
79250;BME280;68679;51.030;7.584;2023-04-24T04:38:02;97689.06;;;8.41;70.41
79250;BME280;68679;51.030;7.584;2023-04-24T04:40:27;97686.16;;;8.43;70.12
79250;BME280;68679;51.030;7.584;2023-04-24T04:42:53;97697.50;;;8.38;69.89
79250;BME280;68679;51.030;7.584;2023-04-24T04:45:19;97699.44;;;8.46;70.68
79250;BME280;68679;51.030;7.584;2023-04-24T04:47:45;97699.88;;;8.34;69.48
79250;BME280;68679;51.030;7.584;2023-04-24T04:50:11;97693.81;;;8.39;70.44
79250;BME280;68679;51.030;7.584;2023-04-24T04:52:36;97697.22;;;8.40;71.40
79250;BME280;68679;51.030;7.584;2023-04-24T04:55:02;97689.16;;;8.36;69.97
79250;BME280;68679;51.030;7.584;2023-04-24T04:57:27;97697.94;;;8.26;69.78
79250;BME280;68679;51.030;7.584;2023-04-24T04:59:53;97697.81;;;8.18;69.40
79250;BME280;68679;51.030;7.584;2023-04-24T05:02:18;97694.13;;;8.19;70.15
79250;BME280;68679;51.030;7.584;2023-04-24T05:04:44;97693.88;;;8.20;69.77
79250;BME280;68679;51.030;7.584;2023-04-24T05:07:10;97701.88;;;8.24;70.35
79250;BME280;68679;51.030;7.584;2023-04-24T05:09:35;97701.41;;;8.22;70.08
79250;BME280;68679;51.030;7.584;2023-04-24T05:12:01;97701.63;;;8.25;70.28
79250;BME280;68679;51.030;7.584;2023-04-24T05:14:27;97700.25;;;8.28;70.20
79250;BME280;68679;51.030;7.584;2023-04-24T05:16:52;97701.72;;;8.20;70.49
79250;BME280;68679;51.030;7.584;2023-04-24T05:19:17;97702.78;;;8.19;70.70
79250;BME280;68679;51.030;7.584;2023-04-24T05:21:43;97705.66;;;8.18;70.74
79250;BME280;68679;51.030;7.584;2023-04-24T05:24:08;97704.31;;;8.20;70.40
79250;BME280;68679;51.030;7.584;2023-04-24T05:26:34;97704.41;;;8.15;69.77
79250;BME280;68679;51.030;7.584;2023-04-24T05:29:01;97714.16;;;8.10;69.25
79250;BME280;68679;51.030;7.584;2023-04-24T05:31:26;97714.91;;;8.10;69.15
79250;BME280;68679;51.030;7.584;2023-04-24T05:33:51;97713.09;;;8.11;69.61
79250;BME280;68679;51.030;7.584;2023-04-24T05:36:17;97718.38;;;8.05;69.18
79250;BME280;68679;51.030;7.584;2023-04-24T05:38:42;97714.81;;;8.01;69.53
79250;BME280;68679;51.030;7.584;2023-04-24T05:41:07;97719.66;;;8.08;70.69
79250;BME280;68679;51.030;7.584;2023-04-24T05:43:33;97720.53;;;8.03;69.64
79250;BME280;68679;51.030;7.584;2023-04-24T05:45:58;97717.91;;;8.03;70.14
79250;BME280;68679;51.030;7.584;2023-04-24T05:48:23;97722.34;;;8.03;70.40
79250;BME280;68679;51.030;7.584;2023-04-24T05:50:49;97726.91;;;8.11;71.14
79250;BME280;68679;51.030;7.584;2023-04-24T05:53:14;97726.06;;;8.16;71.56
79250;BME280;68679;51.030;7.584;2023-04-24T05:55:39;97723.75;;;8.14;70.04
79250;BME280;68679;51.030;7.584;2023-04-24T05:58:05;97718.31;;;8.11;70.23
79250;BME280;68679;51.030;7.584;2023-04-24T06:00:31;97715.22;;;8.09;70.95
79250;BME280;68679;51.030;7.584;2023-04-24T06:02:56;97719.78;;;8.17;70.99
79250;BME280;68679;51.030;7.584;2023-04-24T06:05:22;97717.94;;;8.17;70.70
79250;BME280;68679;51.030;7.584;2023-04-24T06:07:47;97721.59;;;8.16;70.32
79250;BME280;68679;51.030;7.584;2023-04-24T06:10:13;97714.38;;;8.13;70.21
79250;BME280;68679;51.030;7.584;2023-04-24T06:12:38;97711.66;;;8.18;68.93
79250;BME280;68679;51.030;7.584;2023-04-24T06:15:04;97714.84;;;8.15;69.61
79250;BME280;68679;51.030;7.584;2023-04-24T06:17:30;97715.22;;;8.09;71.66
79250;BME280;68679;51.030;7.584;2023-04-24T06:19:55;97719.66;;;8.08;70.37
79250;BME280;68679;51.030;7.584;2023-04-24T06:22:20;97725.66;;;8.09;70.36
79250;BME280;68679;51.030;7.584;2023-04-24T06:24:46;97723.06;;;8.09;71.38
79250;BME280;68679;51.030;7.584;2023-04-24T06:27:13;97721.69;;;8.11;71.08
79250;BME280;68679;51.030;7.584;2023-04-24T06:29:38;97719.94;;;8.06;70.25
79250;BME280;68679;51.030;7.584;2023-04-24T06:32:03;97716.53;;;8.06;70.66
79250;BME280;68679;51.030;7.584;2023-04-24T06:34:29;97714.44;;;8.08;69.99
79250;BME280;68679;51.030;7.584;2023-04-24T06:36:55;97711.25;;;8.11;71.08
79250;BME280;68679;51.030;7.584;2023-04-24T06:39:21;97717.81;;;8.09;71.49
79250;BME280;68679;51.030;7.584;2023-04-24T06:41:46;97719.75;;;8.03;71.46
79250;BME280;68679;51.030;7.584;2023-04-24T06:44:11;97718.19;;;8.02;72.62
79250;BME280;68679;51.030;7.584;2023-04-24T06:46:36;97722.44;;;7.98;71.77
79250;BME280;68679;51.030;7.584;2023-04-24T06:49:02;97716.06;;;8.04;72.57
79250;BME280;68679;51.030;7.584;2023-04-24T06:51:27;97716.47;;;8.11;72.06
79250;BME280;68679;51.030;7.584;2023-04-24T06:53:53;97712.69;;;8.03;72.73
79250;BME280;68679;51.030;7.584;2023-04-24T06:56:19;97713.66;;;8.07;72.85
79250;BME280;68679;51.030;7.584;2023-04-24T06:58:44;97721.22;;;8.09;72.79
79250;BME280;68679;51.030;7.584;2023-04-24T07:01:10;97716.19;;;8.13;72.87
79250;BME280;68679;51.030;7.584;2023-04-24T07:03:36;97728.97;;;8.14;73.70
79250;BME280;68679;51.030;7.584;2023-04-24T07:06:01;97720.88;;;7.97;72.72
79250;BME280;68679;51.030;7.584;2023-04-24T07:08:28;97722.50;;;7.93;73.49
79250;BME280;68679;51.030;7.584;2023-04-24T07:10:56;97722.13;;;7.99;74.48
79250;BME280;68679;51.030;7.584;2023-04-24T07:13:21;97727.34;;;7.99;73.71
79250;BME280;68679;51.030;7.584;2023-04-24T07:15:47;97733.53;;;7.90;74.58
79250;BME280;68679;51.030;7.584;2023-04-24T07:18:15;97738.16;;;7.93;74.70
79250;BME280;68679;51.030;7.584;2023-04-24T07:20:40;97729.84;;;7.91;75.94
79250;BME280;68679;51.030;7.584;2023-04-24T07:23:06;97736.06;;;7.95;75.64
79250;BME280;68679;51.030;7.584;2023-04-24T07:25:31;97743.34;;;7.79;75.87
79250;BME280;68679;51.030;7.584;2023-04-24T07:27:57;97739.66;;;7.80;75.66
79250;BME280;68679;51.030;7.584;2023-04-24T07:30:22;97755.41;;;7.75;76.18
79250;BME280;68679;51.030;7.584;2023-04-24T07:32:47;97753.38;;;7.72;76.01
79250;BME280;68679;51.030;7.584;2023-04-24T07:35:12;97746.94;;;7.64;76.20
79250;BME280;68679;51.030;7.584;2023-04-24T07:37:38;97755.75;;;7.68;76.03
79250;BME280;68679;51.030;7.584;2023-04-24T07:40:03;97755.91;;;7.58;76.29
79250;BME280;68679;51.030;7.584;2023-04-24T07:42:29;97753.63;;;7.51;76.07
79250;BME280;68679;51.030;7.584;2023-04-24T07:44:59;97756.41;;;7.60;77.40
79250;BME280;68679;51.030;7.584;2023-04-24T07:47:24;97764.06;;;7.51;77.44
79250;BME280;68679;51.030;7.584;2023-04-24T07:49:50;97756.69;;;7.59;77.78
79250;BME280;68679;51.030;7.584;2023-04-24T07:52:15;97761.09;;;7.58;77.75
79250;BME280;68679;51.030;7.584;2023-04-24T07:54:41;97761.56;;;7.65;77.79
79250;BME280;68679;51.030;7.584;2023-04-24T07:57:07;97762.16;;;7.76;77.97
79250;BME280;68679;51.030;7.584;2023-04-24T07:59:33;97759.06;;;7.74;78.26
79250;BME280;68679;51.030;7.584;2023-04-24T08:01:58;97766.41;;;7.72;77.86
79250;BME280;68679;51.030;7.584;2023-04-24T08:04:24;97771.41;;;7.68;78.35
79250;BME280;68679;51.030;7.584;2023-04-24T08:06:49;97774.50;;;7.70;78.78
79250;BME280;68679;51.030;7.584;2023-04-24T08:09:15;97763.94;;;7.62;78.12
79250;BME280;68679;51.030;7.584;2023-04-24T08:11:40;97758.78;;;7.57;77.77
79250;BME280;68679;51.030;7.584;2023-04-24T08:14:05;97768.75;;;7.55;77.52
79250;BME280;68679;51.030;7.584;2023-04-24T08:16:32;97769.22;;;7.57;77.11
79250;BME280;68679;51.030;7.584;2023-04-24T08:18:57;97774.50;;;7.51;78.50
79250;BME280;68679;51.030;7.584;2023-04-24T08:21:23;97789.81;;;7.58;79.25
79250;BME280;68679;51.030;7.584;2023-04-24T08:23:48;97789.31;;;7.56;77.73
79250;BME280;68679;51.030;7.584;2023-04-24T08:26:13;97830.13;;;7.47;79.20
79250;BME280;68679;51.030;7.584;2023-04-24T08:28:39;97812.00;;;7.37;76.71
79250;BME280;68679;51.030;7.584;2023-04-24T08:31:04;97858.06;;;7.22;75.13
79250;BME280;68679;51.030;7.584;2023-04-24T08:33:29;97841.84;;;7.02;75.86
79250;BME280;68679;51.030;7.584;2023-04-24T08:36:03;97842.75;;;6.92;76.06
79250;BME280;68679;51.030;7.584;2023-04-24T08:38:29;97845.66;;;6.85;77.70
79250;BME280;68679;51.030;7.584;2023-04-24T08:40:54;97861.44;;;6.70;77.12
79250;BME280;68679;51.030;7.584;2023-04-24T08:43:22;97858.94;;;6.55;76.15
79250;BME280;68679;51.030;7.584;2023-04-24T08:45:47;97864.75;;;6.47;76.00
79250;BME280;68679;51.030;7.584;2023-04-24T08:48:12;97872.31;;;6.43;76.51
79250;BME280;68679;51.030;7.584;2023-04-24T08:50:38;97858.72;;;6.51;76.68
79250;BME280;68679;51.030;7.584;2023-04-24T08:53:07;97864.78;;;6.41;77.41
79250;BME280;68679;51.030;7.584;2023-04-24T08:55:33;97863.97;;;6.46;78.31
79250;BME280;68679;51.030;7.584;2023-04-24T08:58:00;97869.44;;;6.50;77.15
79250;BME280;68679;51.030;7.584;2023-04-24T09:00:26;97879.63;;;6.41;77.67
79250;BME280;68679;51.030;7.584;2023-04-24T09:02:53;97875.19;;;6.41;77.71
79250;BME280;68679;51.030;7.584;2023-04-24T09:05:20;97887.94;;;6.43;76.34
79250;BME280;68679;51.030;7.584;2023-04-24T09:07:49;97897.38;;;6.34;76.53
79250;BME280;68679;51.030;7.584;2023-04-24T09:10:16;97909.38;;;6.30;76.74
79250;BME280;68679;51.030;7.584;2023-04-24T09:12:43;97886.78;;;6.25;78.05
79250;BME280;68679;51.030;7.584;2023-04-24T09:15:09;97884.69;;;6.27;77.01
79250;BME280;68679;51.030;7.584;2023-04-24T09:17:35;97888.53;;;6.35;77.94
79250;BME280;68679;51.030;7.584;2023-04-24T09:20:01;97876.53;;;6.39;77.34
79250;BME280;68679;51.030;7.584;2023-04-24T09:22:29;97888.81;;;6.33;78.03
79250;BME280;68679;51.030;7.584;2023-04-24T09:25:06;97895.06;;;6.32;77.86
79250;BME280;68679;51.030;7.584;2023-04-24T09:27:32;97892.44;;;6.37;78.03
79250;BME280;68679;51.030;7.584;2023-04-24T09:29:58;97912.19;;;6.43;78.16
79250;BME280;68679;51.030;7.584;2023-04-24T09:32:24;97900.75;;;6.39;78.63
79250;BME280;68679;51.030;7.584;2023-04-24T09:35:14;97918.78;;;6.26;78.17
79250;BME280;68679;51.030;7.584;2023-04-24T09:37:42;97921.88;;;6.33;79.53
79250;BME280;68679;51.030;7.584;2023-04-24T09:40:16;97931.72;;;6.36;78.44
79250;BME280;68679;51.030;7.584;2023-04-24T09:42:46;97929.13;;;6.36;78.53
79250;BME280;68679;51.030;7.584;2023-04-24T09:45:12;97937.50;;;6.33;79.09
79250;BME280;68679;51.030;7.584;2023-04-24T09:47:38;97939.00;;;6.44;78.73
79250;BME280;68679;51.030;7.584;2023-04-24T09:50:15;97948.63;;;6.43;78.52
79250;BME280;68679;51.030;7.584;2023-04-24T09:52:45;97946.53;;;6.45;79.09
79250;BME280;68679;51.030;7.584;2023-04-24T09:55:18;97965.03;;;6.44;79.91
79250;BME280;68679;51.030;7.584;2023-04-24T09:57:51;97960.28;;;6.51;78.89
79250;BME280;68679;51.030;7.584;2023-04-24T10:00:25;97953.25;;;6.52;79.16
79250;BME280;68679;51.030;7.584;2023-04-24T10:03:11;97965.44;;;6.61;80.31
79250;BME280;68679;51.030;7.584;2023-04-24T10:05:37;97961.78;;;6.62;79.67
79250;BME280;68679;51.030;7.584;2023-04-24T10:08:09;97974.56;;;6.59;79.77
79250;BME280;68679;51.030;7.584;2023-04-24T10:10:39;97974.78;;;6.67;79.60
79250;BME280;68679;51.030;7.584;2023-04-24T10:13:04;97970.38;;;6.63;79.76
79250;BME280;68679;51.030;7.584;2023-04-24T10:15:30;97985.91;;;6.73;79.88
79250;BME280;68679;51.030;7.584;2023-04-24T10:17:57;97976.53;;;6.72;79.85
79250;BME280;68679;51.030;7.584;2023-04-24T10:20:25;97985.41;;;6.71;79.59
79250;BME280;68679;51.030;7.584;2023-04-24T10:22:53;97998.91;;;6.78;79.89
79250;BME280;68679;51.030;7.584;2023-04-24T10:25:20;97993.78;;;6.68;79.20
79250;BME280;68679;51.030;7.584;2023-04-24T10:27:47;98012.50;;;6.70;79.30
79250;BME280;68679;51.030;7.584;2023-04-24T10:30:14;98011.19;;;6.72;78.59
79250;BME280;68679;51.030;7.584;2023-04-24T10:32:39;98028.41;;;6.74;78.91
79250;BME280;68679;51.030;7.584;2023-04-24T10:35:09;98031.50;;;6.76;78.36
79250;BME280;68679;51.030;7.584;2023-04-24T10:37:38;98029.38;;;6.83;78.33
79250;BME280;68679;51.030;7.584;2023-04-24T10:40:04;98027.25;;;6.85;79.06
79250;BME280;68679;51.030;7.584;2023-04-24T10:42:30;98036.88;;;6.89;77.79
79250;BME280;68679;51.030;7.584;2023-04-24T10:44:56;98028.53;;;6.92;79.29
79250;BME280;68679;51.030;7.584;2023-04-24T10:47:23;98034.97;;;7.00;79.80
79250;BME280;68679;51.030;7.584;2023-04-24T10:49:50;98043.50;;;7.11;79.01
79250;BME280;68679;51.030;7.584;2023-04-24T10:52:16;98042.47;;;7.12;78.16
79250;BME280;68679;51.030;7.584;2023-04-24T10:54:44;98047.41;;;7.08;79.22
79250;BME280;68679;51.030;7.584;2023-04-24T10:59:46;98049.75;;;7.10;79.06
79250;BME280;68679;51.030;7.584;2023-04-24T11:02:14;98057.75;;;7.23;80.00
79250;BME280;68679;51.030;7.584;2023-04-24T11:04:41;98062.16;;;7.28;80.26
79250;BME280;68679;51.030;7.584;2023-04-24T11:07:08;98069.13;;;7.33;80.54
79250;BME280;68679;51.030;7.584;2023-04-24T11:09:34;98065.72;;;7.37;80.12
79250;BME280;68679;51.030;7.584;2023-04-24T11:12:06;98064.13;;;7.41;80.07
79250;BME280;68679;51.030;7.584;2023-04-24T11:15:00;98071.31;;;7.55;80.12
79250;BME280;68679;51.030;7.584;2023-04-24T11:17:30;98071.81;;;7.57;80.03
79250;BME280;68679;51.030;7.584;2023-04-24T11:20:04;98068.63;;;7.65;80.10
79250;BME280;68679;51.030;7.584;2023-04-24T11:22:34;98067.78;;;7.69;79.43
79250;BME280;68679;51.030;7.584;2023-04-24T11:25:03;98074.78;;;7.74;79.43
79250;BME280;68679;51.030;7.584;2023-04-24T11:27:31;98074.75;;;7.79;78.69
79250;BME280;68679;51.030;7.584;2023-04-24T11:30:00;98083.03;;;7.86;78.64
79250;BME280;68679;51.030;7.584;2023-04-24T11:35:02;98085.19;;;7.79;78.18
79250;BME280;68679;51.030;7.584;2023-04-24T11:37:33;98089.06;;;7.82;78.91
79250;BME280;68679;51.030;7.584;2023-04-24T11:39:59;98112.22;;;7.88;79.30
79250;BME280;68679;51.030;7.584;2023-04-24T11:42:25;98108.50;;;7.94;78.82
79250;BME280;68679;51.030;7.584;2023-04-24T11:44:54;98111.56;;;7.77;75.82
79250;BME280;68679;51.030;7.584;2023-04-24T11:47:29;98116.44;;;7.84;77.47
79250;BME280;68679;51.030;7.584;2023-04-24T11:49:55;98122.41;;;7.90;76.87
79250;BME280;68679;51.030;7.584;2023-04-24T11:52:20;98115.50;;;7.99;78.02
79250;BME280;68679;51.030;7.584;2023-04-24T11:54:49;98129.34;;;7.99;79.00
79250;BME280;68679;51.030;7.584;2023-04-24T11:57:15;98125.19;;;7.98;77.43
79250;BME280;68679;51.030;7.584;2023-04-24T11:59:41;98127.19;;;8.06;79.38
79250;BME280;68679;51.030;7.584;2023-04-24T12:02:06;98132.34;;;8.12;78.37
79250;BME280;68679;51.030;7.584;2023-04-24T12:04:39;98121.78;;;8.27;80.00
79250;BME280;68679;51.030;7.584;2023-04-24T12:07:05;98141.56;;;8.33;80.22
79250;BME280;68679;51.030;7.584;2023-04-24T12:09:47;98141.72;;;8.42;79.08
79250;BME280;68679;51.030;7.584;2023-04-24T12:12:15;98131.00;;;8.43;77.58
79250;BME280;68679;51.030;7.584;2023-04-24T12:14:49;98140.84;;;8.51;78.35
79250;BME280;68679;51.030;7.584;2023-04-24T12:17:24;98143.16;;;8.77;79.56
79250;BME280;68679;51.030;7.584;2023-04-24T12:19:50;98139.63;;;8.68;75.45
79250;BME280;68679;51.030;7.584;2023-04-24T12:22:16;98137.00;;;8.68;75.55
79250;BME280;68679;51.030;7.584;2023-04-24T12:25:01;98144.63;;;8.64;75.16
79250;BME280;68679;51.030;7.584;2023-04-24T12:27:30;98145.47;;;8.59;75.86
79250;BME280;68679;51.030;7.584;2023-04-24T12:29:57;98133.78;;;8.76;76.13
79250;BME280;68679;51.030;7.584;2023-04-24T12:32:23;98144.16;;;8.81;75.61
79250;BME280;68679;51.030;7.584;2023-04-24T12:34:49;98147.97;;;8.89;75.06
79250;BME280;68679;51.030;7.584;2023-04-24T12:37:16;98146.78;;;9.00;77.30
79250;BME280;68679;51.030;7.584;2023-04-24T12:39:58;98143.53;;;9.08;73.82
79250;BME280;68679;51.030;7.584;2023-04-24T12:42:28;98150.38;;;9.04;74.67
79250;BME280;68679;51.030;7.584;2023-04-24T12:44:58;98144.47;;;8.98;70.62
79250;BME280;68679;51.030;7.584;2023-04-24T12:47:25;98151.25;;;8.99;72.78
79250;BME280;68679;51.030;7.584;2023-04-24T12:49:50;98156.31;;;8.91;72.58
79250;BME280;68679;51.030;7.584;2023-04-24T12:52:18;98156.81;;;8.93;74.19
79250;BME280;68679;51.030;7.584;2023-04-24T12:54:45;98158.66;;;8.92;73.60
79250;BME280;68679;51.030;7.584;2023-04-24T12:57:10;98152.72;;;8.86;74.12
79250;BME280;68679;51.030;7.584;2023-04-24T12:59:35;98169.38;;;8.91;72.83
79250;BME280;68679;51.030;7.584;2023-04-24T13:02:01;98160.03;;;8.84;73.54
79250;BME280;68679;51.030;7.584;2023-04-24T13:04:26;98168.66;;;8.85;73.57
79250;BME280;68679;51.030;7.584;2023-04-24T13:06:51;98161.94;;;8.79;72.00
79250;BME280;68679;51.030;7.584;2023-04-24T13:09:17;98167.47;;;8.77;70.62
79250;BME280;68679;51.030;7.584;2023-04-24T13:11:42;98169.72;;;8.84;72.82